Time;durP1;ratioP1;P1;durP2;ratioP2;P2;SDS_P1;SDS_P2;PMS_P1;PMS_P2;Temp;Humidity;BMP_temperature;BMP_pressure;BME280_temperature;BME280_humidity;BME280_pressure;Samples;Min_cycle;Max_cycle;Signal;HPM_P1;HPM_P2
2023/05/12 00:01:13;;;;;;;6.88;4.70;;;14.20;99.90;;;;;;5056679;28;20040;-75
2023/05/12 00:03:39;;;;;;;6.78;4.65;;;14.30;99.90;;;;;;5076449;28;20028;-75
2023/05/12 00:06:06;;;;;;;7.35;5.10;;;14.20;99.90;;;;;;5074613;28;20028;-75
2023/05/12 00:08:32;;;;;;;4.68;3.90;;;14.20;99.90;;;;;;5066061;28;20028;-75
2023/05/12 00:10:58;;;;;;;6.82;4.47;;;14.20;99.90;;;;;;5079937;28;20039;-75
2023/05/12 00:13:24;;;;;;;5.20;4.47;;;14.20;99.90;;;;;;5057337;28;20043;-75
2023/05/12 00:15:50;;;;;;;8.23;4.30;;;14.20;99.90;;;;;;5093121;28;20054;-75
2023/05/12 00:18:16;;;;;;;7.43;5.03;;;14.00;99.90;;;;;;5044881;28;20033;-74
2023/05/12 00:20:42;;;;;;;5.45;4.30;;;14.00;99.90;;;;;;5076665;28;20043;-75
2023/05/12 00:23:09;;;;;;;9.05;4.65;;;14.10;99.90;;;;;;5093627;28;20024;-75
2023/05/12 00:25:35;;;;;;;7.25;4.60;;;14.10;99.90;;;;;;5056541;28;20039;-75
2023/05/12 00:28:01;;;;;;;7.13;4.50;;;14.00;99.90;;;;;;5092962;28;20051;-75
2023/05/12 00:30:27;;;;;;;6.78;5.07;;;14.00;99.90;;;;;;5056757;28;20043;-75
2023/05/12 00:32:53;;;;;;;5.40;4.38;;;14.00;99.90;;;;;;5075653;28;20028;-74
2023/05/12 00:35:19;;;;;;;5.35;4.70;;;14.00;99.90;;;;;;5071356;28;20035;-75
2023/05/12 00:37:45;;;;;;;4.57;4.18;;;14.10;99.90;;;;;;5063932;28;20047;-75
2023/05/12 00:40:11;;;;;;;7.20;4.32;;;14.00;99.90;;;;;;5072656;28;20028;-75
2023/05/12 00:42:37;;;;;;;6.15;4.40;;;14.00;99.90;;;;;;5092310;28;20094;-76
2023/05/12 00:45:04;;;;;;;8.15;4.75;;;13.90;99.90;;;;;;5073757;28;20058;-75
2023/05/12 00:47:31;;;;;;;7.25;4.50;;;14.00;99.90;;;;;;5092508;28;20052;-75
2023/05/12 00:49:57;;;;;;;5.75;4.65;;;14.00;99.90;;;;;;5058655;28;20040;-75
2023/05/12 00:52:23;;;;;;;5.38;4.32;;;14.10;99.90;;;;;;5057952;28;20032;-75
2023/05/12 00:54:49;;;;;;;6.10;4.20;;;14.10;99.90;;;;;;5056917;28;20468;-75
2023/05/12 00:57:15;;;;;;;7.35;4.40;;;14.00;99.90;;;;;;5074367;28;20024;-75
2023/05/12 00:59:41;;;;;;;7.15;4.20;;;14.00;99.90;;;;;;5058258;28;20047;-75
2023/05/12 01:02:08;;;;;;;5.65;4.75;;;14.00;99.90;;;;;;5055237;28;20028;-75
2023/05/12 01:04:34;;;;;;;6.50;4.75;;;14.10;99.90;;;;;;5068610;28;20401;-75
2023/05/12 01:07:22;;;;;;;7.28;4.32;;;14.00;99.90;;;;;;5073625;28;20051;-74
2023/05/12 01:09:55;;;;;;;8.38;4.03;;;14.00;99.90;;;;;;5074272;28;20035;-75
2023/05/12 01:12:25;;;;;;;4.15;3.83;;;14.00;99.90;;;;;;5073880;28;20028;-75
2023/05/12 01:14:52;;;;;;;5.75;4.43;;;14.00;99.90;;;;;;5046571;28;20028;-75
2023/05/12 01:17:20;;;;;;;7.97;5.15;;;14.00;99.90;;;;;;5089070;28;20031;-75
2023/05/12 01:19:53;;;;;;;6.50;4.40;;;14.10;99.90;;;;;;5060001;28;20049;-75
2023/05/12 01:22:19;;;;;;;6.40;4.30;;;14.00;99.90;;;;;;5071821;28;20032;-75
2023/05/12 01:24:49;;;;;;;5.13;4.72;;;14.00;99.90;;;;;;5065184;28;20033;-75
2023/05/12 01:27:16;;;;;;;7.70;4.25;;;14.00;99.90;;;;;;5092212;28;20048;-75
2023/05/12 01:29:43;;;;;;;5.38;4.15;;;14.00;99.90;;;;;;5057234;28;20028;-74
2023/05/12 01:32:09;;;;;;;5.65;4.28;;;13.90;99.90;;;;;;5072741;28;20044;-75
2023/05/12 01:34:36;;;;;;;7.72;4.30;;;13.90;99.90;;;;;;5090480;28;20039;-75
2023/05/12 01:37:02;;;;;;;6.75;3.97;;;14.00;99.90;;;;;;5073611;28;20043;-75
2023/05/12 01:39:28;;;;;;;4.38;3.97;;;13.90;99.90;;;;;;5073969;28;20377;-76
2023/05/12 01:41:55;;;;;;;7.18;3.88;;;13.80;99.90;;;;;;5073641;28;20050;-74
2023/05/12 01:44:21;;;;;;;6.75;3.55;;;13.80;99.90;;;;;;5073428;28;20036;-75
2023/05/12 01:46:48;;;;;;;6.30;3.22;;;13.70;99.90;;;;;;5090273;28;20048;-74
2023/05/12 01:49:14;;;;;;;7.30;3.70;;;13.70;99.90;;;;;;5073665;28;20039;-75
2023/05/12 01:51:40;;;;;;;4.97;3.40;;;13.70;99.90;;;;;;5072773;28;20032;-75
2023/05/12 01:54:06;;;;;;;7.38;4.35;;;13.70;99.90;;;;;;5091501;28;20028;-75
2023/05/12 01:56:32;;;;;;;8.27;4.07;;;13.70;99.90;;;;;;5090702;28;20024;-75
2023/05/12 01:58:58;;;;;;;11.35;4.40;;;13.70;99.90;;;;;;5091306;28;20051;-75
2023/05/12 02:01:27;;;;;;;9.45;4.43;;;13.80;99.90;;;;;;5068845;28;20072;-75
2023/05/12 02:03:54;;;;;;;11.27;3.92;;;13.80;99.90;;;;;;5084101;28;20059;-74
2023/05/12 02:06:21;;;;;;;10.00;4.28;;;13.70;99.90;;;;;;5088477;28;20449;-75
2023/05/12 02:08:47;;;;;;;5.90;3.72;;;13.70;99.90;;;;;;5072557;28;20054;-75
2023/05/12 02:11:14;;;;;;;8.77;3.90;;;13.70;99.90;;;;;;5090394;28;20040;-75
2023/05/12 02:13:40;;;;;;;6.10;3.80;;;13.70;99.90;;;;;;5070879;28;20044;-75
2023/05/12 02:16:06;;;;;;;8.65;4.00;;;13.60;99.90;;;;;;5087721;28;20069;-75
2023/05/12 02:18:32;;;;;;;6.22;4.03;;;13.50;99.90;;;;;;5072603;28;20032;-75
2023/05/12 02:20:58;;;;;;;8.65;4.32;;;13.50;99.90;;;;;;5071824;28;20039;-75
2023/05/12 02:23:24;;;;;;;7.05;3.95;;;13.50;99.90;;;;;;5090256;28;20062;-74
2023/05/12 02:25:50;;;;;;;7.55;4.07;;;13.60;99.90;;;;;;5062033;28;20033;-75
2023/05/12 02:28:16;;;;;;;5.93;3.38;;;13.60;99.90;;;;;;5089626;28;20040;-75
2023/05/12 02:30:49;;;;;;;8.90;4.05;;;13.60;99.90;;;;;;5087932;28;20036;-75
2023/05/12 02:33:19;;;;;;;7.35;4.00;;;13.60;99.90;;;;;;5052692;28;20373;-75
2023/05/12 02:35:45;;;;;;;7.68;4.07;;;13.60;99.90;;;;;;5085688;28;20370;-75
2023/05/12 02:38:11;;;;;;;11.48;4.20;;;13.50;99.90;;;;;;5094373;28;20040;-75
2023/05/12 02:40:37;;;;;;;6.93;3.70;;;13.50;99.90;;;;;;5071588;28;20358;-76
2023/05/12 02:43:03;;;;;;;7.78;4.03;;;13.50;99.90;;;;;;5095561;28;20027;-75
2023/05/12 02:45:30;;;;;;;5.47;3.83;;;13.50;99.90;;;;;;5092721;28;20096;-75
2023/05/12 02:47:56;;;;;;;9.70;3.92;;;13.50;99.90;;;;;;5060601;28;20054;-75
2023/05/12 02:50:22;;;;;;;7.07;4.10;;;13.50;99.90;;;;;;5094682;28;20084;-75
2023/05/12 02:52:48;;;;;;;8.82;3.90;;;13.40;99.90;;;;;;5076706;28;20039;-75
2023/05/12 02:55:14;;;;;;;6.68;3.67;;;13.40;99.90;;;;;;5076167;28;20079;-75
2023/05/12 02:57:41;;;;;;;12.60;4.05;;;13.30;99.90;;;;;;5077062;28;20036;-75
2023/05/12 03:00:08;;;;;;;9.50;3.90;;;13.30;99.90;;;;;;5075442;28;20039;-75
2023/05/12 03:02:37;;;;;;;7.28;4.07;;;13.30;99.90;;;;;;5074892;28;20044;-75
2023/05/12 03:05:04;;;;;;;7.32;4.03;;;12.90;99.90;;;;;;5072467;28;20028;-74
2023/05/12 03:07:30;;;;;;;7.20;4.00;;;12.80;99.90;;;;;;5075681;28;20051;-75
2023/05/12 03:09:56;;;;;;;14.63;4.10;;;12.70;99.90;;;;;;5083704;28;20032;-75
2023/05/12 03:12:23;;;;;;;5.88;4.03;;;12.50;99.90;;;;;;5070572;28;20511;-75
2023/05/12 03:14:50;;;;;;;8.43;4.60;;;12.60;99.90;;;;;;5078580;28;20043;-75
2023/05/12 03:17:16;;;;;;;9.43;4.80;;;12.50;99.90;;;;;;5091629;28;20047;-75
2023/05/12 03:19:42;;;;;;;13.25;4.88;;;12.40;99.90;;;;;;5076729;28;20039;-74
2023/05/12 03:22:08;;;;;;;9.75;4.82;;;12.40;99.90;;;;;;5089507;28;20028;-75
2023/05/12 03:24:35;;;;;;;8.18;4.85;;;12.50;99.90;;;;;;5093611;28;20507;-75
2023/05/12 03:27:01;;;;;;;7.55;4.57;;;12.50;99.90;;;;;;5076770;28;20035;-75
2023/05/12 03:29:27;;;;;;;9.73;4.88;;;12.50;99.90;;;;;;5094657;28;20377;-75
2023/05/12 03:31:53;;;;;;;8.55;4.85;;;12.60;99.90;;;;;;5092870;28;20036;-75
2023/05/12 03:34:19;;;;;;;14.75;5.20;;;12.50;99.90;;;;;;5092909;28;20494;-75
2023/05/12 03:36:45;;;;;;;9.20;4.60;;;12.50;99.90;;;;;;5073491;28;20037;-75
2023/05/12 03:39:11;;;;;;;8.00;5.07;;;12.50;99.90;;;;;;5089376;28;20436;-75
2023/05/12 03:41:38;;;;;;;10.98;5.07;;;12.50;99.90;;;;;;5093043;28;20036;-75
2023/05/12 03:44:04;;;;;;;7.97;4.60;;;12.40;99.90;;;;;;5070735;28;20078;-75
2023/05/12 03:46:31;;;;;;;8.93;4.60;;;12.40;99.90;;;;;;5090848;28;20044;-75
2023/05/12 03:48:57;;;;;;;8.05;4.38;;;12.50;99.90;;;;;;5076693;28;20055;-75
2023/05/12 03:51:24;;;;;;;7.25;4.18;;;12.50;99.90;;;;;;5058696;28;20048;-75
2023/05/12 03:53:50;;;;;;;8.15;4.13;;;12.60;99.90;;;;;;5045024;28;20488;-75
2023/05/12 03:56:17;;;;;;;6.40;4.40;;;12.60;99.90;;;;;;5094542;28;20051;-73
2023/05/12 03:58:45;;;;;;;9.55;4.30;;;12.60;99.90;;;;;;5093809;28;20062;-77
2023/05/12 04:01:11;;;;;;;8.98;4.57;;;12.70;99.90;;;;;;5067850;28;20043;-77
2023/05/12 04:03:37;;;;;;;6.90;4.15;;;12.80;99.90;;;;;;5079644;28;20032;-77
2023/05/12 04:06:03;;;;;;;8.32;3.97;;;12.80;99.90;;;;;;5091380;28;20381;-77
2023/05/12 04:08:29;;;;;;;8.57;4.57;;;12.80;99.90;;;;;;5076001;28;20035;-77
2023/05/12 04:10:57;;;;;;;5.80;4.38;;;12.70;99.90;;;;;;5093258;28;20032;-77
2023/05/12 04:13:23;;;;;;;7.75;4.50;;;12.70;99.90;;;;;;5074669;28;20028;-77
2023/05/12 04:15:50;;;;;;;12.13;4.45;;;12.70;99.90;;;;;;5093739;28;20468;-76
2023/05/12 04:18:16;;;;;;;8.77;4.43;;;12.60;99.90;;;;;;5092343;28;20098;-76
2023/05/12 04:20:43;;;;;;;9.43;4.72;;;12.70;99.90;;;;;;5066800;28;20044;-77
2023/05/12 04:23:09;;;;;;;6.75;4.50;;;12.70;99.90;;;;;;5074937;28;20476;-77
2023/05/12 04:25:39;;;;;;;7.70;4.63;;;12.70;99.90;;;;;;5075718;28;20028;-76
2023/05/12 04:28:05;;;;;;;8.65;4.60;;;12.70;99.90;;;;;;5058281;28;20369;-77
2023/05/12 04:30:32;;;;;;;6.25;4.57;;;12.60;99.90;;;;;;5092669;28;20040;-77
2023/05/12 04:32:58;;;;;;;5.45;4.25;;;12.70;99.90;;;;;;5074347;28;20035;-77
2023/05/12 04:35:24;;;;;;;9.43;4.65;;;12.50;99.90;;;;;;5057825;28;20036;-76
2023/05/12 04:37:50;;;;;;;7.10;4.43;;;12.50;99.90;;;;;;5074667;28;20044;-77
2023/05/12 04:40:16;;;;;;;6.35;4.32;;;12.50;99.90;;;;;;5086738;28;20469;-77
2023/05/12 04:42:42;;;;;;;5.78;4.10;;;12.50;99.90;;;;;;5074319;28;20110;-77
2023/05/12 04:45:09;;;;;;;8.07;4.60;;;12.40;99.90;;;;;;5072614;28;20031;-77
2023/05/12 04:47:35;;;;;;;6.90;4.28;;;12.40;99.90;;;;;;5092750;28;20040;-76
2023/05/12 04:50:01;;;;;;;6.57;4.43;;;12.40;99.90;;;;;;5074049;28;20072;-76
2023/05/12 04:52:27;;;;;;;8.52;4.22;;;12.30;99.90;;;;;;5090248;28;20032;-76
2023/05/12 04:54:53;;;;;;;9.10;4.20;;;12.10;99.90;;;;;;5093155;28;20032;-76
2023/05/12 04:57:19;;;;;;;6.55;4.32;;;12.10;99.90;;;;;;5092267;28;20020;-76
2023/05/12 04:59:45;;;;;;;9.30;4.80;;;12.10;99.90;;;;;;5092453;28;20507;-76
2023/05/12 05:02:11;;;;;;;10.73;4.53;;;12.10;99.90;;;;;;5073276;28;20043;-77
2023/05/12 05:04:38;;;;;;;9.45;4.65;;;12.00;99.90;;;;;;5092790;28;20035;-76
2023/05/12 05:07:04;;;;;;;7.63;4.40;;;12.00;99.90;;;;;;5074732;28;20036;-76
2023/05/12 05:09:30;;;;;;;8.75;4.90;;;12.00;99.90;;;;;;5092910;28;20044;-77
2023/05/12 05:11:56;;;;;;;6.68;4.35;;;12.10;99.90;;;;;;5056866;28;20035;-77
2023/05/12 05:14:22;;;;;;;6.63;4.55;;;12.10;99.90;;;;;;5073837;28;20032;-76
2023/05/12 05:16:48;;;;;;;6.22;4.38;;;12.10;99.90;;;;;;5090792;28;20385;-77
2023/05/12 05:19:14;;;;;;;6.57;4.65;;;12.20;99.90;;;;;;5074867;28;20027;-76
2023/05/12 05:21:40;;;;;;;6.55;4.55;;;12.30;99.90;;;;;;5052466;28;20036;-77
2023/05/12 05:24:07;;;;;;;14.85;4.63;;;12.30;99.90;;;;;;5072382;28;20040;-76
2023/05/12 05:26:33;;;;;;;7.05;4.80;;;12.30;99.90;;;;;;5085665;28;20044;-75
2023/05/12 05:29:00;;;;;;;8.75;5.15;;;12.30;99.90;;;;;;5074149;28;20086;-75
2023/05/12 05:31:27;;;;;;;7.40;4.97;;;12.40;99.90;;;;;;5067679;28;20385;-75
2023/05/12 05:33:54;;;;;;;8.68;5.00;;;12.30;99.90;;;;;;5084552;28;20036;-75
2023/05/12 05:36:25;;;;;;;5.80;4.72;;;12.40;99.90;;;;;;5078231;28;20035;-76
2023/05/12 05:38:51;;;;;;;11.73;5.32;;;12.40;99.90;;;;;;5074827;28;20470;-75
2023/05/12 05:41:17;;;;;;;5.88;5.20;;;12.50;99.90;;;;;;5091362;28;20032;-75
2023/05/12 05:43:43;;;;;;;7.60;4.82;;;12.60;99.90;;;;;;5092034;28;20031;-76
2023/05/12 05:46:09;;;;;;;7.18;5.00;;;12.70;99.90;;;;;;5064426;28;20420;-76
2023/05/12 05:48:35;;;;;;;7.40;4.70;;;12.90;99.90;;;;;;5064735;28;20040;-75
2023/05/12 05:51:02;;;;;;;8.60;4.80;;;13.00;99.90;;;;;;5090830;28;20024;-76
2023/05/12 05:53:28;;;;;;;9.30;4.43;;;13.00;99.90;;;;;;5088481;28;20036;-76
2023/05/12 05:55:54;;;;;;;7.07;4.60;;;13.10;99.90;;;;;;5076472;28;20039;-75
2023/05/12 05:58:20;;;;;;;5.32;4.22;;;13.10;99.90;;;;;;5069241;28;20408;-76
2023/05/12 06:00:46;;;;;;;8.30;4.32;;;13.00;99.90;;;;;;5056016;28;20028;-75
2023/05/12 06:03:12;;;;;;;7.28;3.92;;;12.90;99.90;;;;;;5074147;28;20457;-75
2023/05/12 06:05:40;;;;;;;6.88;4.15;;;12.60;99.90;;;;;;5077505;28;20032;-78
2023/05/12 06:08:08;;;;;;;8.85;4.53;;;12.50;99.90;;;;;;5072874;28;20044;-75
2023/05/12 06:10:34;;;;;;;7.85;4.60;;;12.50;99.90;;;;;;5074310;28;20047;-75
2023/05/12 06:13:00;;;;;;;6.90;4.50;;;12.50;99.90;;;;;;5076955;28;20441;-75
2023/05/12 06:15:26;;;;;;;10.73;4.47;;;12.50;99.90;;;;;;5059845;28;20032;-75
2023/05/12 06:17:52;;;;;;;10.82;4.47;;;12.50;99.90;;;;;;5074939;28;20484;-75
2023/05/12 06:20:19;;;;;;;8.88;4.68;;;12.70;99.90;;;;;;5087840;28;20083;-75
2023/05/12 06:22:45;;;;;;;8.82;4.90;;;12.90;99.90;;;;;;5074625;28;20354;-75
2023/05/12 06:25:11;;;;;;;5.85;4.32;;;13.10;99.90;;;;;;5057909;28;20020;-75
2023/05/12 06:27:37;;;;;;;5.65;4.60;;;13.20;99.90;;;;;;5048700;28;20080;-75
2023/05/12 06:30:03;;;;;;;7.55;4.03;;;13.30;99.90;;;;;;5057204;28;20040;-75
2023/05/12 06:32:30;;;;;;;8.30;3.83;;;13.30;99.90;;;;;;5076668;28;20139;-75
2023/05/12 06:34:56;;;;;;;4.97;3.72;;;13.30;99.90;;;;;;5060432;28;20035;-75
2023/05/12 06:37:22;;;;;;;6.53;4.38;;;13.50;99.90;;;;;;5093262;28;20032;-75
2023/05/12 06:39:48;;;;;;;6.40;4.25;;;13.50;99.90;;;;;;5095097;28;20031;-74
2023/05/12 06:42:14;;;;;;;5.90;4.00;;;13.60;99.90;;;;;;5093251;28;20062;-75
2023/05/12 06:44:40;;;;;;;5.53;4.53;;;13.70;99.90;;;;;;5088665;28;20380;-75
2023/05/12 06:47:06;;;;;;;4.55;4.15;;;13.80;99.90;;;;;;5087751;28;20032;-76
2023/05/12 06:49:35;;;;;;;6.07;4.53;;;13.90;99.90;;;;;;5084882;28;20412;-75
2023/05/12 06:52:02;;;;;;;5.35;3.78;;;14.00;99.90;;;;;;5074446;28;20024;-75
2023/05/12 06:54:28;;;;;;;5.07;4.07;;;14.20;99.90;;;;;;5070579;28;20658;-75
2023/05/12 06:56:54;;;;;;;7.05;4.57;;;14.40;99.90;;;;;;5089092;28;20032;-75
2023/05/12 06:59:21;;;;;;;5.05;4.00;;;14.40;99.90;;;;;;5076950;28;20358;-75
2023/05/12 07:01:47;;;;;;;5.07;4.20;;;14.40;99.90;;;;;;5075637;28;20040;-75
2023/05/12 07:04:13;;;;;;;7.40;4.57;;;14.50;99.90;;;;;;5079676;28;20028;-75
2023/05/12 07:06:39;;;;;;;8.63;5.03;;;14.60;99.90;;;;;;5068215;28;20036;-75
2023/05/12 07:09:05;;;;;;;5.13;4.30;;;14.60;99.90;;;;;;5087405;28;20044;-73
2023/05/12 07:11:31;;;;;;;5.75;4.43;;;14.80;99.90;;;;;;5093763;28;20032;-72
2023/05/12 07:13:57;;;;;;;5.30;4.50;;;15.00;99.90;;;;;;5095008;28;20055;-72
2023/05/12 07:16:23;;;;;;;7.93;4.97;;;15.00;99.90;;;;;;5074965;28;20032;-72
2023/05/12 07:18:49;;;;;;;7.43;4.80;;;15.20;99.90;;;;;;5071289;28;20029;-78
2023/05/12 07:21:15;;;;;;;8.38;4.57;;;15.40;99.90;;;;;;5088737;28;20465;-78
2023/05/12 07:23:42;;;;;;;8.18;4.70;;;15.40;99.90;;;;;;5076222;28;20040;-78
2023/05/12 07:26:08;;;;;;;5.53;4.45;;;15.50;99.90;;;;;;5081712;28;20024;-78
2023/05/12 07:28:35;;;;;;;6.10;4.65;;;15.50;99.90;;;;;;5050953;28;20541;-78
2023/05/12 07:31:02;;;;;;;8.32;6.18;;;15.60;99.90;;;;;;5082269;28;20037;-78
2023/05/12 07:33:30;;;;;;;8.88;4.80;;;15.50;99.90;;;;;;5052641;28;20047;-77
2023/05/12 07:35:57;;;;;;;5.32;4.60;;;15.60;99.90;;;;;;5094417;28;20021;-78
2023/05/12 07:38:23;;;;;;;9.32;4.80;;;15.70;99.90;;;;;;5075604;28;20059;-77
2023/05/12 07:40:50;;;;;;;6.45;4.60;;;15.90;99.90;;;;;;5071719;28;20485;-78
2023/05/12 07:43:16;;;;;;;6.03;4.22;;;15.90;99.90;;;;;;5090304;28;20031;-77
2023/05/12 07:45:43;;;;;;;6.22;4.35;;;15.90;99.90;;;;;;5061930;28;20032;-78
2023/05/12 07:48:11;;;;;;;5.10;4.30;;;16.10;99.90;;;;;;5072812;28;20036;-78
2023/05/12 07:50:38;;;;;;;4.85;4.35;;;16.20;99.90;;;;;;5092537;28;20024;-76
2023/05/12 07:53:04;;;;;;;7.22;4.88;;;16.20;99.90;;;;;;5066734;28;20024;-78
2023/05/12 07:55:32;;;;;;;5.35;4.30;;;16.20;99.90;;;;;;5088826;28;20055;-78
2023/05/12 07:57:58;;;;;;;6.55;4.63;;;16.20;99.90;;;;;;5042149;28;20051;-79
2023/05/12 08:00:24;;;;;;;7.50;4.70;;;16.20;99.90;;;;;;5075080;28;20461;-80
2023/05/12 08:02:50;;;;;;;6.18;4.28;;;16.10;99.90;;;;;;5074703;28;20574;-78
2023/05/12 08:05:16;;;;;;;5.30;4.40;;;16.20;99.90;;;;;;5075760;28;20035;-80
2023/05/12 08:07:42;;;;;;;8.00;4.22;;;16.10;99.90;;;;;;5057424;28;20039;-79
2023/05/12 08:10:10;;;;;;;4.70;4.30;;;16.10;99.90;;;;;;5068373;28;20153;-79
2023/05/12 08:12:36;;;;;;;6.03;4.75;;;16.10;99.90;;;;;;5058478;28;20024;-78
2023/05/12 08:15:03;;;;;;;7.38;4.28;;;16.20;99.90;;;;;;5074039;28;20032;-78
2023/05/12 08:17:29;;;;;;;4.68;4.10;;;16.10;99.90;;;;;;5074783;28;20682;-79
2023/05/12 08:19:55;;;;;;;8.93;4.47;;;16.00;99.90;;;;;;5093837;28;20461;-79
2023/05/12 08:22:21;;;;;;;6.28;4.38;;;16.00;99.90;;;;;;5075648;28;20039;-79
2023/05/12 08:24:47;;;;;;;6.97;4.18;;;16.00;99.90;;;;;;5074147;28;20388;-79
2023/05/12 08:27:13;;;;;;;5.75;4.13;;;16.20;99.90;;;;;;5092624;28;20024;-78
2023/05/12 08:29:39;;;;;;;5.20;4.07;;;16.30;99.90;;;;;;5072063;28;20036;-80
2023/05/12 08:32:06;;;;;;;8.07;4.55;;;16.40;99.90;;;;;;5066996;28;20039;-78
2023/05/12 08:34:32;;;;;;;5.80;4.30;;;16.60;99.90;;;;;;5067128;28;20362;-78
2023/05/12 08:36:58;;;;;;;7.65;4.55;;;16.80;99.90;;;;;;5088035;28;20023;-78
2023/05/12 08:39:24;;;;;;;6.22;4.55;;;16.90;99.90;;;;;;5087468;28;20058;-78
2023/05/12 08:42:12;;;;;;;4.93;4.40;;;17.10;99.90;;;;;;5054353;28;20495;-78
2023/05/12 08:44:38;;;;;;;6.68;4.75;;;17.30;99.90;;;;;;5068425;28;20044;-79
2023/05/12 08:47:05;;;;;;;6.53;4.60;;;17.40;99.90;;;;;;5058508;28;20029;-78
2023/05/12 08:49:32;;;;;;;6.85;4.97;;;17.60;99.90;;;;;;5075186;28;20464;-78
2023/05/12 08:52:00;;;;;;;6.53;4.68;;;17.60;99.90;;;;;;5072305;28;20507;-78
2023/05/12 08:54:26;;;;;;;5.93;4.68;;;17.80;99.90;;;;;;5073437;28;20465;-79
2023/05/12 08:56:53;;;;;;;5.30;4.70;;;17.90;99.90;;;;;;5070221;28;20396;-78
2023/05/12 08:59:19;;;;;;;7.35;4.60;;;17.90;99.90;;;;;;5067198;28;20040;-77
2023/05/12 09:01:46;;;;;;;6.63;4.80;;;17.80;99.90;;;;;;5082497;28;20036;-77
2023/05/12 09:04:14;;;;;;;5.30;4.72;;;17.60;99.90;;;;;;5056296;28;20487;-78
2023/05/12 09:06:43;;;;;;;5.47;4.90;;;17.60;99.90;;;;;;5068217;28;20036;-76
2023/05/12 09:09:10;;;;;;;7.20;4.38;;;17.70;99.90;;;;;;5040042;28;20044;-76
2023/05/12 09:11:36;;;;;;;5.53;4.22;;;17.90;99.90;;;;;;5073821;28;20036;-76
2023/05/12 09:14:05;;;;;;;7.55;3.50;;;18.20;99.90;;;;;;5071247;28;20063;-76
2023/05/12 09:16:39;;;;;;;8.65;4.65;;;18.40;99.90;;;;;;5072799;28;20036;-76
2023/05/12 09:19:05;;;;;;;4.88;4.03;;;18.40;99.90;;;;;;5073712;28;20039;-74
2023/05/12 09:21:31;;;;;;;4.88;4.20;;;18.50;99.90;;;;;;5090065;28;20460;-75
2023/05/12 09:24:05;;;;;;;5.60;4.75;;;18.50;99.90;;;;;;5069813;28;20047;-76
2023/05/12 09:26:43;;;;;;;4.78;4.28;;;18.50;99.90;;;;;;5071966;28;20012;-75
2023/05/12 09:29:10;;;;;;;5.53;4.32;;;18.60;99.90;;;;;;5091902;28;20062;-76
2023/05/12 09:31:36;;;;;;;4.35;3.95;;;18.60;99.90;;;;;;5075850;28;20650;-76
2023/05/12 09:34:06;;;;;;;6.68;4.45;;;18.80;99.90;;;;;;5070277;28;20036;-75
2023/05/12 09:36:33;;;;;;;6.00;4.60;;;18.60;99.90;;;;;;5074883;28;20027;-76
2023/05/12 09:38:59;;;;;;;5.22;4.30;;;18.60;99.90;;;;;;5068670;28;20028;-76
2023/05/12 09:41:25;;;;;;;5.00;4.50;;;18.90;99.90;;;;;;5088589;28;20031;-76
2023/05/12 09:43:52;;;;;;;5.78;4.35;;;19.20;99.90;;;;;;5085784;28;20020;-77
2023/05/12 09:46:18;;;;;;;5.45;4.93;;;19.40;99.90;;;;;;5069680;28;20028;-77
2023/05/12 09:48:47;;;;;;;5.18;4.57;;;19.40;99.90;;;;;;5052421;28;20033;-76
2023/05/12 09:51:16;;;;;;;5.30;4.70;;;19.30;99.90;;;;;;5083585;28;20028;-77
2023/05/12 09:53:43;;;;;;;6.18;5.20;;;19.40;99.90;;;;;;5074014;28;20031;-77
2023/05/12 09:56:11;;;;;;;7.55;4.80;;;19.30;99.90;;;;;;5078294;28;20384;-77
2023/05/12 09:58:39;;;;;;;5.05;4.55;;;19.20;99.90;;;;;;5072164;28;20051;-76
2023/05/12 10:01:06;;;;;;;6.93;4.43;;;18.90;99.90;;;;;;5067251;28;20032;-76
2023/05/12 10:03:32;;;;;;;5.47;4.18;;;18.80;99.90;;;;;;5041375;28;20075;-76
2023/05/12 10:06:02;;;;;;;8.52;4.53;;;18.80;99.90;;;;;;5059292;28;20389;-73
2023/05/12 10:08:53;;;;;;;8.05;4.30;;;19.00;99.90;;;;;;5045548;28;20048;-76
2023/05/12 10:11:20;;;;;;;6.28;4.60;;;19.20;99.90;;;;;;5089249;28;20055;-76
2023/05/12 10:13:46;;;;;;;5.22;4.60;;;19.20;99.90;;;;;;5074233;28;20024;-76
2023/05/12 10:16:12;;;;;;;6.72;4.05;;;19.10;99.90;;;;;;5073288;28;20039;-75
2023/05/12 10:18:38;;;;;;;5.38;4.05;;;19.10;99.90;;;;;;5057455;28;20103;-75
2023/05/12 10:21:05;;;;;;;5.35;4.50;;;18.80;99.90;;;;;;5066482;28;20024;-76
2023/05/12 10:23:31;;;;;;;6.78;3.88;;;18.70;99.90;;;;;;5055430;28;20024;-75
2023/05/12 10:26:00;;;;;;;9.85;4.05;;;18.70;99.90;;;;;;5062325;28;20388;-75
2023/05/12 10:28:27;;;;;;;4.38;3.83;;;18.60;99.90;;;;;;5074067;28;20032;-76
2023/05/12 10:30:54;;;;;;;5.50;4.13;;;18.60;99.90;;;;;;5071771;28;20033;-76
2023/05/12 10:33:21;;;;;;;6.07;3.90;;;18.60;99.90;;;;;;5035803;28;20504;-77
2023/05/12 10:35:47;;;;;;;6.15;4.13;;;18.60;99.90;;;;;;5055033;28;20054;-76
2023/05/12 10:38:15;;;;;;;6.63;4.47;;;18.50;99.90;;;;;;5048461;28;20043;-76
2023/05/12 10:40:52;;;;;;;6.78;4.32;;;18.50;99.90;;;;;;5070982;28;20020;-76
2023/05/12 10:46:12;;;;;;;5.38;4.30;;;18.30;99.90;;;;;;4854453;22;20057;-76
2023/05/12 10:48:56;;;;;;;5.53;4.45;;;18.30;99.90;;;;;;5023085;28;20029;-75
2023/05/12 10:51:27;;;;;;;7.65;4.35;;;18.30;99.90;;;;;;5012270;28;20067;-77
2023/05/12 10:53:57;;;;;;;9.45;4.60;;;18.30;99.90;;;;;;4997541;28;20025;-77
2023/05/12 10:56:25;;;;;;;4.80;4.28;;;18.70;99.90;;;;;;5010493;28;20033;-79
2023/05/12 10:59:09;;;;;;;6.93;4.80;;;19.10;99.90;;;;;;5000364;28;20037;-79
2023/05/12 11:01:35;;;;;;;5.65;4.63;;;19.30;99.90;;;;;;5030305;28;20499;-79
2023/05/12 11:04:15;;;;;;;6.32;4.53;;;19.40;99.90;;;;;;5015776;28;20037;-78
2023/05/12 11:06:42;;;;;;;7.78;4.97;;;19.50;99.90;;;;;;5014232;28;20037;-78
2023/05/12 11:09:09;;;;;;;8.95;5.13;;;19.50;99.90;;;;;;5031608;28;20465;-78
2023/05/12 11:11:36;;;;;;;6.20;4.82;;;19.60;99.90;;;;;;5017090;28;20037;-79
2023/05/12 11:14:02;;;;;;;8.00;4.50;;;19.60;99.90;;;;;;5017447;28;20029;-79
2023/05/12 11:16:28;;;;;;;5.10;4.20;;;19.30;99.90;;;;;;5031909;28;20605;-79
2023/05/12 11:19:01;;;;;;;6.43;4.82;;;19.10;99.90;;;;;;5016075;28;20036;-79
2023/05/12 11:21:29;;;;;;;7.32;4.80;;;19.40;99.90;;;;;;5033570;28;20053;-79
2023/05/12 11:23:55;;;;;;;5.68;5.13;;;19.40;99.90;;;;;;5034194;28;20049;-79
2023/05/12 11:26:21;;;;;;;7.85;5.15;;;19.50;99.90;;;;;;5015742;28;20466;-79
2023/05/12 11:28:47;;;;;;;4.80;4.40;;;19.40;99.90;;;;;;5033198;28;20400;-78
2023/05/12 11:31:18;;;;;;;5.00;4.60;;;19.40;99.90;;;;;;5033732;28;20033;-78
2023/05/12 11:33:45;;;;;;;5.13;4.60;;;19.20;99.90;;;;;;5016553;28;20018;-78
2023/05/12 11:36:11;;;;;;;6.15;5.10;;;19.30;99.90;;;;;;5033920;28;20033;-78
2023/05/12 11:38:37;;;;;;;6.60;4.45;;;19.50;99.90;;;;;;5032151;28;20046;-79
2023/05/12 11:41:03;;;;;;;6.75;5.18;;;19.50;99.90;;;;;;5034210;28;20055;-79
2023/05/12 11:43:29;;;;;;;6.63;5.55;;;19.50;99.90;;;;;;4999048;28;20477;-79
2023/05/12 11:45:55;;;;;;;5.88;5.47;;;19.60;99.90;;;;;;5032313;28;20037;-79
2023/05/12 11:48:30;;;;;;;8.20;5.80;;;19.70;99.90;;;;;;5024536;28;20033;-78
2023/05/12 11:50:56;;;;;;;8.50;5.93;;;19.60;99.90;;;;;;5000235;28;20512;-78
2023/05/12 11:53:23;;;;;;;6.75;6.22;;;19.60;99.90;;;;;;5028212;28;20018;-77
2023/05/12 11:55:53;;;;;;;7.68;6.22;;;19.50;99.90;;;;;;5010195;28;20061;-77
2023/05/12 11:58:28;;;;;;;8.48;5.85;;;19.60;99.90;;;;;;5029489;28;20029;-78
2023/05/12 12:00:54;;;;;;;8.30;5.55;;;19.60;99.90;;;;;;5032733;28;20032;-78
2023/05/12 12:03:20;;;;;;;6.72;6.03;;;19.70;99.90;;;;;;5016253;28;20037;-78
2023/05/12 12:06:01;;;;;;;7.43;5.93;;;19.60;99.90;;;;;;5015040;28;20037;-77
2023/05/12 12:08:27;;;;;;;6.50;5.57;;;19.60;99.90;;;;;;5016160;28;20040;-78
2023/05/12 12:10:53;;;;;;;6.32;5.82;;;19.50;99.90;;;;;;4993406;28;20048;-78
2023/05/12 12:13:23;;;;;;;6.45;4.97;;;19.60;99.90;;;;;;4996392;28;20062;-78
2023/05/12 12:15:49;;;;;;;6.53;5.88;;;19.50;99.90;;;;;;4982796;28;20033;-78
2023/05/12 12:18:15;;;;;;;6.50;5.50;;;19.60;99.90;;;;;;5015861;28;20033;-77
2023/05/12 12:20:42;;;;;;;6.82;6.32;;;19.80;99.90;;;;;;5029398;28;20033;-78
2023/05/12 12:23:08;;;;;;;6.45;5.90;;;19.70;99.90;;;;;;4996260;28;20037;-78
2023/05/12 12:25:34;;;;;;;7.38;5.78;;;19.90;99.90;;;;;;5031730;28;20030;-77
2023/05/12 12:28:01;;;;;;;6.25;5.75;;;19.80;99.90;;;;;;5033095;28;20036;-79
2023/05/12 12:30:27;;;;;;;6.85;6.22;;;19.90;99.90;;;;;;4998520;28;20033;-78
2023/05/12 12:32:53;;;;;;;6.35;5.85;;;20.20;99.90;;;;;;4996396;28;20025;-79
2023/05/12 12:35:19;;;;;;;6.82;6.07;;;20.30;99.90;;;;;;5025131;28;20033;-79
2023/05/12 12:37:50;;;;;;;7.18;6.57;;;20.50;99.90;;;;;;5032351;28;20029;-78
2023/05/12 12:40:16;;;;;;;6.68;6.20;;;20.60;99.90;;;;;;5032812;28;20026;-79
2023/05/12 12:42:42;;;;;;;7.28;6.78;;;20.70;99.90;;;;;;5033054;28;20064;-78
2023/05/12 12:45:09;;;;;;;7.47;6.88;;;20.60;99.90;;;;;;5014649;28;20029;-78
2023/05/12 12:47:36;;;;;;;7.15;6.22;;;20.40;99.90;;;;;;5014417;28;20030;-78